createdAt,value
2022-11-14T00:00:43.094Z,89.23
2022-11-14T00:03:28.344Z,85.70
2022-11-14T00:06:13.860Z,93.63
2022-11-14T00:08:59.090Z,90.97
2022-11-14T00:11:44.086Z,87.93
2022-11-14T00:14:29.177Z,87.67
2022-11-14T00:17:14.780Z,90.10
2022-11-14T00:19:59.497Z,89.03
2022-11-14T00:22:44.930Z,86.30
2022-11-14T00:25:30.234Z,89.00
2022-11-14T00:28:15.700Z,88.60
2022-11-14T00:31:00.454Z,87.20
2022-11-14T00:33:45.961Z,90.93
2022-11-14T00:36:31.236Z,84.57
2022-11-14T00:39:16.670Z,84.13
2022-11-14T00:42:03.271Z,76.90
2022-11-14T00:44:49.141Z,84.23
2022-11-14T00:47:34.147Z,79.83
2022-11-14T00:50:19.432Z,80.63
2022-11-14T00:53:04.706Z,77.77
2022-11-14T00:55:49.913Z,81.00
2022-11-14T00:58:34.849Z,75.73
2022-11-14T01:01:20.053Z,78.30
2022-11-14T01:04:05.414Z,76.73
2022-11-14T01:06:50.598Z,75.73
2022-11-14T01:09:35.867Z,80.93
2022-11-14T01:12:20.934Z,81.33
2022-11-14T01:15:06.846Z,80.57
2022-11-14T01:17:51.970Z,82.57
2022-11-14T01:20:42.356Z,79.93
2022-11-14T01:23:27.696Z,74.97
2022-11-14T01:26:14.384Z,73.97
2022-11-14T01:28:59.484Z,77.20
2022-11-14T01:31:44.896Z,75.73
2022-11-14T01:34:30.149Z,79.03
2022-11-14T01:37:15.431Z,74.83
2022-11-14T01:40:00.579Z,69.83
2022-11-14T01:43:11.487Z,64.93
2022-11-14T01:46:01.941Z,72.37
2022-11-14T01:49:03.412Z,72.67
2022-11-14T01:51:55.819Z,72.23
2022-11-14T01:54:48.315Z,74.90
2022-11-14T01:57:38.435Z,76.50
2022-11-14T02:00:23.381Z,75.03
2022-11-14T02:03:08.216Z,68.33
2022-11-14T02:05:54.361Z,74.80
2022-11-14T02:08:40.677Z,69.20
2022-11-14T02:11:28.701Z,72.37
2022-11-14T02:14:14.186Z,75.47
2022-11-14T02:17:22.575Z,71.07
2022-11-14T02:20:10.532Z,66.73
2022-11-14T02:22:55.797Z,66.63
2022-11-14T02:25:41.234Z,68.80
2022-11-14T02:28:27.506Z,67.93
2022-11-14T02:31:14.156Z,71.73
2022-11-14T02:33:59.084Z,65.87
2022-11-14T02:36:44.193Z,66.53
2022-11-14T02:39:29.393Z,70.97
2022-11-14T02:42:14.624Z,65.63
2022-11-14T02:45:00.128Z,73.93
2022-11-14T02:47:46.856Z,69.07
2022-11-14T02:50:32.031Z,69.17
2022-11-14T02:53:17.270Z,66.93
2022-11-14T02:56:02.379Z,66.57
2022-11-14T02:58:47.669Z,67.60
2022-11-14T03:01:33.047Z,63.13
2022-11-14T03:04:18.047Z,66.50
2022-11-14T03:07:03.330Z,63.10
2022-11-14T03:09:49.398Z,61.80
2022-11-14T03:12:34.188Z,62.07
2022-11-14T03:15:19.481Z,60.80
2022-11-14T03:18:04.756Z,63.57
2022-11-14T03:20:49.700Z,59.77
2022-11-14T03:23:34.608Z,58.27
2022-11-14T03:26:19.605Z,62.13
2022-11-14T03:29:04.776Z,65.13
2022-11-14T03:31:50.079Z,61.87
2022-11-14T03:34:35.245Z,58.73
2022-11-14T03:37:20.052Z,59.13
2022-11-14T03:40:06.101Z,59.80
2022-11-14T03:42:51.129Z,59.83
2022-11-14T03:45:37.733Z,56.37
2022-11-14T03:48:22.438Z,56.73
2022-11-14T03:51:07.899Z,60.83
2022-11-14T03:53:53.564Z,59.47
2022-11-14T03:56:38.551Z,60.30
2022-11-14T03:59:23.623Z,60.47
2022-11-14T04:02:09.078Z,53.57
2022-11-14T04:04:54.097Z,62.20
2022-11-14T04:07:39.574Z,58.87
2022-11-14T04:10:24.676Z,66.20
2022-11-14T04:13:09.714Z,61.13
2022-11-14T04:15:59.043Z,60.37
2022-11-14T04:18:44.313Z,65.40
2022-11-14T04:21:29.225Z,64.20
2022-11-14T04:24:14.411Z,64.63
2022-11-14T04:26:59.659Z,64.67
2022-11-14T04:29:44.620Z,64.17
2022-11-14T04:32:29.649Z,67.67
2022-11-14T04:35:14.528Z,71.93
2022-11-14T04:37:59.563Z,63.93
2022-11-14T04:40:53.896Z,68.53
2022-11-14T04:43:38.924Z,66.63
2022-11-14T04:46:24.188Z,69.97
2022-11-14T04:49:09.358Z,73.93
2022-11-14T04:51:54.403Z,72.70
2022-11-14T04:54:39.748Z,62.00
2022-11-14T04:57:25.088Z,64.33
2022-11-14T05:00:10.793Z,65.90
2022-11-14T05:02:58.684Z,64.33
2022-11-14T05:05:44.178Z,62.10
2022-11-14T05:08:29.799Z,58.23
2022-11-14T05:11:16.404Z,59.80
2022-11-14T05:14:02.831Z,60.57
2022-11-14T05:16:47.848Z,55.87
2022-11-14T05:19:33.155Z,61.30
2022-11-14T05:22:18.291Z,65.57
2022-11-14T05:25:03.642Z,63.57
2022-11-14T05:27:48.991Z,60.80
2022-11-14T05:30:34.165Z,61.47
2022-11-14T05:33:19.025Z,64.53
2022-11-14T05:36:04.759Z,60.13
2022-11-14T05:38:49.901Z,61.90
2022-11-14T05:41:34.765Z,62.33
2022-11-14T05:44:20.026Z,60.60
2022-11-14T05:47:05.226Z,64.40
2022-11-14T05:49:50.098Z,63.13
2022-11-14T05:52:35.164Z,63.57
2022-11-14T05:55:24.573Z,61.27
2022-11-14T05:58:10.226Z,63.50
2022-11-14T06:01:06.837Z,72.73
2022-11-14T06:03:52.104Z,69.00
2022-11-14T06:06:37.134Z,68.07
2022-11-14T06:09:22.579Z,69.60
2022-11-14T06:12:08.247Z,67.53
2022-11-14T06:14:53.506Z,70.03
2022-11-14T06:17:38.704Z,68.03
2022-11-14T06:20:23.831Z,66.90
2022-11-14T06:23:09.162Z,64.47
2022-11-14T06:26:02.230Z,68.00
2022-11-14T06:28:49.569Z,64.87
2022-11-14T06:31:34.542Z,58.83
2022-11-14T06:34:19.791Z,60.73
2022-11-14T06:37:05.766Z,66.57
2022-11-14T06:39:51.180Z,67.63
2022-11-14T06:42:36.452Z,61.23
2022-11-14T06:45:21.710Z,60.77
2022-11-14T06:48:06.968Z,65.90
2022-11-14T06:50:56.244Z,65.93
2022-11-14T06:53:41.975Z,67.10
2022-11-14T06:56:27.317Z,69.17
2022-11-14T06:59:12.620Z,69.27
2022-11-14T07:01:57.596Z,72.17
2022-11-14T07:04:42.996Z,66.70
2022-11-14T07:07:28.963Z,71.83
2022-11-14T07:10:14.500Z,64.87
2022-11-14T07:12:59.397Z,70.33
2022-11-14T07:15:54.246Z,74.30
2022-11-14T07:18:39.501Z,71.30
2022-11-14T07:21:25.492Z,68.20
2022-11-14T07:24:10.414Z,68.00
2022-11-14T07:26:55.551Z,64.73
2022-11-14T07:29:40.360Z,70.77
2022-11-14T07:32:25.512Z,75.53
2022-11-14T07:35:10.950Z,74.27
2022-11-14T07:38:02.291Z,69.10
2022-11-14T07:40:59.669Z,73.23
2022-11-14T07:43:47.555Z,75.33
2022-11-14T07:46:32.815Z,75.10
2022-11-14T07:49:17.833Z,74.53
2022-11-14T07:52:02.959Z,77.07
2022-11-14T07:54:48.432Z,72.90
2022-11-14T07:57:37.042Z,74.63
2022-11-14T08:00:25.791Z,73.37
2022-11-14T08:03:11.076Z,72.37
2022-11-14T08:06:09.543Z,75.10
2022-11-14T08:08:54.701Z,72.97
2022-11-14T08:11:48.652Z,73.53
2022-11-14T08:14:34.859Z,71.70
2022-11-14T08:17:21.380Z,74.13
2022-11-14T08:20:08.145Z,79.13
2022-11-14T08:22:54.450Z,80.77
2022-11-14T08:25:39.839Z,76.40
2022-11-14T08:28:24.677Z,83.17
2022-11-14T08:31:10.802Z,81.00
2022-11-14T08:33:55.705Z,76.93
2022-11-14T08:36:40.937Z,77.13
2022-11-14T08:39:26.031Z,77.87
2022-11-14T08:42:11.227Z,81.27
2022-11-14T08:44:56.331Z,75.13
2022-11-14T08:47:41.307Z,66.33
2022-11-14T08:50:26.364Z,73.37
2022-11-14T08:53:11.422Z,72.23
2022-11-14T08:55:56.790Z,75.80
2022-11-14T08:58:42.000Z,75.00
2022-11-14T09:01:26.962Z,68.53
2022-11-14T09:04:12.169Z,71.10
2022-11-14T09:06:58.867Z,69.57
2022-11-14T09:09:44.597Z,70.30
2022-11-14T09:12:29.707Z,68.37
2022-11-14T09:15:15.198Z,62.20
2022-11-14T09:18:00.138Z,67.80
2022-11-14T09:20:45.089Z,69.60
2022-11-14T09:23:30.670Z,72.97
2022-11-14T09:26:16.302Z,72.47
2022-11-14T09:29:02.113Z,72.43
2022-11-14T09:31:47.252Z,71.77
2022-11-14T09:34:32.369Z,76.57
2022-11-14T09:37:17.507Z,75.40
2022-11-14T09:40:03.704Z,77.37
2022-11-14T09:43:25.329Z,73.50
2022-11-14T09:46:37.780Z,74.30
2022-11-14T09:49:35.230Z,73.73
2022-11-14T09:52:33.645Z,70.20
2022-11-14T09:55:21.254Z,70.77
2022-11-14T09:58:15.672Z,66.57
2022-11-14T10:01:09.750Z,65.77
2022-11-14T10:04:28.425Z,66.40
2022-11-14T10:07:45.403Z,72.97
2022-11-14T10:10:45.809Z,53.27
2022-11-14T10:13:59.710Z,54.50
2022-11-14T10:16:58.166Z,53.87
2022-11-14T10:20:17.684Z,54.53
2022-11-14T10:23:18.216Z,55.53
2022-11-14T10:26:23.374Z,55.60
2022-11-14T10:29:27.133Z,51.73
2022-11-14T10:32:36.915Z,57.70
2022-11-14T10:35:46.861Z,55.17
2022-11-14T10:38:46.417Z,54.13
2022-11-14T10:41:55.670Z,51.73
2022-11-14T10:44:50.987Z,54.13
2022-11-14T10:47:41.060Z,54.40
2022-11-14T10:50:48.149Z,52.93
2022-11-14T10:53:35.803Z,53.20
2022-11-14T10:56:21.462Z,52.87
2022-11-14T10:59:08.854Z,50.50
2022-11-14T11:01:56.336Z,53.87
2022-11-14T11:04:43.315Z,54.07
2022-11-14T11:07:54.734Z,47.53
2022-11-14T11:11:03.935Z,46.27
2022-11-14T11:13:55.787Z,45.73
2022-11-14T11:16:40.961Z,44.87
2022-11-14T11:19:27.228Z,47.30
2022-11-14T11:22:36.217Z,43.70
2022-11-14T11:25:30.382Z,45.77
2022-11-14T11:28:20.756Z,48.20
2022-11-14T11:31:11.153Z,47.17
2022-11-14T11:34:02.663Z,46.27
2022-11-14T11:36:55.822Z,44.33
2022-11-14T11:39:48.056Z,45.87
2022-11-14T11:43:37.248Z,48.30
2022-11-14T11:46:42.761Z,50.27
2022-11-14T11:49:30.475Z,46.40
2022-11-14T11:52:34.161Z,41.03
2022-11-14T11:55:25.477Z,47.83
2022-11-14T11:58:41.115Z,49.60
2022-11-14T12:01:26.452Z,41.07
2022-11-14T12:04:11.393Z,44.00
2022-11-14T12:07:12.507Z,42.00
2022-11-14T12:10:10.859Z,38.30
2022-11-14T12:13:33.619Z,43.77
2022-11-14T12:16:58.240Z,42.50
2022-11-14T12:20:29.910Z,42.47
2022-11-14T12:23:58.404Z,37.37
2022-11-14T12:26:52.082Z,41.27
2022-11-14T12:29:51.933Z,41.57
2022-11-14T12:32:42.367Z,40.03
2022-11-14T12:35:35.838Z,39.67
2022-11-14T12:38:22.617Z,41.43
2022-11-14T12:41:08.685Z,37.77
2022-11-14T12:43:55.985Z,38.53
2022-11-14T12:47:13.609Z,40.70
2022-11-14T12:50:00.657Z,38.17
2022-11-14T12:52:48.907Z,36.83
2022-11-14T12:55:43.873Z,37.37
2022-11-14T12:58:36.210Z,37.37
2022-11-14T13:01:30.480Z,35.90
2022-11-14T13:04:32.549Z,37.20
2022-11-14T13:07:34.500Z,36.43
2022-11-14T13:10:31.628Z,32.23
2022-11-14T13:13:36.485Z,36.43
2022-11-14T13:16:48.423Z,35.33
2022-11-14T13:19:52.011Z,36.40
2022-11-14T13:22:45.457Z,39.03
2022-11-14T13:25:30.997Z,36.77
2022-11-14T13:28:37.891Z,35.97
2022-11-14T13:31:45.879Z,31.83
2022-11-14T13:34:38.504Z,32.63
2022-11-14T13:38:00.741Z,28.60
2022-11-14T13:40:51.705Z,30.53
2022-11-14T13:44:01.415Z,33.67
2022-11-14T13:47:08.261Z,34.10
2022-11-14T13:49:59.279Z,30.57
2022-11-14T13:52:48.862Z,34.80
2022-11-14T13:55:58.841Z,35.37
2022-11-14T13:58:56.305Z,33.73
2022-11-14T14:01:54.593Z,36.03
2022-11-14T14:05:00.990Z,35.57
2022-11-14T14:08:00.809Z,37.07
2022-11-14T14:11:00.718Z,42.90
2022-11-14T14:13:57.667Z,37.77
2022-11-14T14:16:58.710Z,46.53
2022-11-14T14:20:00.084Z,38.67
2022-11-14T14:23:16.862Z,42.03
2022-11-14T14:26:34.639Z,39.27
2022-11-14T14:29:45.956Z,41.97
2022-11-14T14:32:30.950Z,40.50
2022-11-14T14:35:39.077Z,42.57
2022-11-14T14:38:28.291Z,38.07
2022-11-14T14:41:18.043Z,38.67
2022-11-14T14:44:03.029Z,40.27
2022-11-14T14:46:48.239Z,41.97
2022-11-14T14:49:37.677Z,36.53
2022-11-14T14:52:30.728Z,43.90
2022-11-14T14:55:30.420Z,38.63
2022-11-14T14:58:21.992Z,42.80
2022-11-14T15:01:15.886Z,39.97
2022-11-14T15:04:06.693Z,43.20
2022-11-14T15:06:53.470Z,42.33
2022-11-14T15:09:38.776Z,42.37
2022-11-14T15:12:26.065Z,42.40
2022-11-14T15:15:16.682Z,44.77
2022-11-14T15:18:07.398Z,44.87
2022-11-14T15:21:14.066Z,46.70
2022-11-14T15:24:18.601Z,42.23
2022-11-14T15:27:10.136Z,44.73
2022-11-14T15:30:00.689Z,43.13
2022-11-14T15:32:57.321Z,38.60
2022-11-14T15:35:42.738Z,43.10
2022-11-14T15:38:44.669Z,43.10
2022-11-14T15:41:33.855Z,39.83
2022-11-14T15:44:34.619Z,43.47
2022-11-14T15:47:29.013Z,40.03
2022-11-14T15:50:13.770Z,42.07
2022-11-14T15:53:01.969Z,42.93
2022-11-14T15:55:47.325Z,41.47
2022-11-14T15:58:32.979Z,43.13
2022-11-14T16:01:23.759Z,44.93
2022-11-14T16:04:14.348Z,44.07
2022-11-14T16:06:59.242Z,43.47
2022-11-14T16:09:45.148Z,45.20
2022-11-14T16:12:30.261Z,42.87
2022-11-14T16:15:16.561Z,42.83
2022-11-14T16:18:04.594Z,44.13
2022-11-14T16:20:51.376Z,47.27
2022-11-14T16:23:36.609Z,47.97
2022-11-14T16:26:21.863Z,46.60
2022-11-14T16:29:08.884Z,52.50
2022-11-14T16:31:55.151Z,45.83
2022-11-14T16:34:40.298Z,49.70
2022-11-14T16:37:25.599Z,46.83
2022-11-14T16:40:21.436Z,48.50
2022-11-14T16:43:06.575Z,46.30
2022-11-14T16:45:51.426Z,51.27
2022-11-14T16:48:36.411Z,50.37
2022-11-14T16:51:47.047Z,51.67
2022-11-14T16:54:26.449Z,50.60
2022-11-14T16:57:12.023Z,55.23
2022-11-14T16:59:58.084Z,50.13
2022-11-14T17:02:44.020Z,55.30
2022-11-14T17:05:28.977Z,48.57
2022-11-14T17:08:15.728Z,53.57
2022-11-14T17:11:00.925Z,47.17
2022-11-14T17:13:46.641Z,51.57
2022-11-14T17:16:31.833Z,49.43
2022-11-14T17:19:16.778Z,52.80
2022-11-14T17:22:01.826Z,55.43
2022-11-14T17:24:47.121Z,51.47
2022-11-14T17:27:32.170Z,53.80
2022-11-14T17:30:18.360Z,53.80
2022-11-14T17:33:03.183Z,51.63
2022-11-14T17:35:48.513Z,52.67
2022-11-14T17:38:35.217Z,52.97
2022-11-14T17:41:20.656Z,53.17
2022-11-14T17:44:05.498Z,53.33
2022-11-14T17:46:50.588Z,52.73
2022-11-14T17:49:35.635Z,57.00
2022-11-14T17:52:21.440Z,56.73
2022-11-14T17:55:07.326Z,55.10
2022-11-14T17:57:52.382Z,59.10
2022-11-14T18:00:37.514Z,56.00
2022-11-14T18:03:22.647Z,55.77
2022-11-14T18:06:09.890Z,54.83
2022-11-14T18:08:54.833Z,53.43
2022-11-14T18:11:39.844Z,58.20
2022-11-14T18:14:25.058Z,53.57
2022-11-14T18:17:13.142Z,56.40
2022-11-14T18:20:01.512Z,50.73
2022-11-14T18:22:46.541Z,53.27
2022-11-14T18:25:31.708Z,50.10
2022-11-14T18:28:17.061Z,53.67
2022-11-14T18:31:04.489Z,55.33
2022-11-14T18:33:50.348Z,55.50
2022-11-14T18:36:35.286Z,55.10
2022-11-14T18:39:20.586Z,53.20
2022-11-14T18:42:05.903Z,52.43
2022-11-14T18:44:51.192Z,51.03
2022-11-14T18:47:36.589Z,51.37
2022-11-14T18:50:21.806Z,49.77
2022-11-14T18:53:07.137Z,48.27
2022-11-14T18:55:53.200Z,49.53
2022-11-14T18:58:41.932Z,48.03
2022-11-14T19:01:30.050Z,46.20
2022-11-14T19:04:17.334Z,45.03
2022-11-14T19:07:02.633Z,41.37
2022-11-14T19:09:48.341Z,44.17
2022-11-14T19:12:33.681Z,43.97
2022-11-14T19:15:18.686Z,42.17
2022-11-14T19:18:03.888Z,46.23
2022-11-14T19:20:57.233Z,44.93
2022-11-14T19:23:42.126Z,46.83
2022-11-14T19:26:28.160Z,41.10
2022-11-14T19:29:13.781Z,41.20
2022-11-14T19:31:59.126Z,42.53
2022-11-14T19:34:45.331Z,42.57
2022-11-14T19:37:30.384Z,46.33
2022-11-14T19:40:15.444Z,41.60
2022-11-14T19:43:03.937Z,43.17
2022-11-14T19:45:48.947Z,40.97
2022-11-14T19:48:35.385Z,42.07
2022-11-14T19:51:22.289Z,39.00
2022-11-14T19:54:09.948Z,41.03
2022-11-14T19:56:55.348Z,40.20
2022-11-14T19:59:40.298Z,38.97
2022-11-14T20:02:25.803Z,43.23
2022-11-14T20:05:11.539Z,39.07
2022-11-14T20:07:56.608Z,41.10
2022-11-14T20:10:47.585Z,40.37
2022-11-14T20:13:35.475Z,35.73
2022-11-14T20:16:23.372Z,37.23
2022-11-14T20:19:08.750Z,35.60
2022-11-14T20:21:53.881Z,34.97
2022-11-14T20:24:39.085Z,35.63
2022-11-14T20:27:24.146Z,32.67
2022-11-14T20:30:09.761Z,36.80
2022-11-14T20:32:54.814Z,35.93
2022-11-14T20:35:40.084Z,38.27
2022-11-14T20:38:25.181Z,37.20
2022-11-14T20:41:12.305Z,37.03
2022-11-14T20:43:57.560Z,33.07
2022-11-14T20:46:42.907Z,38.83
2022-11-14T20:49:28.117Z,35.10
2022-11-14T20:52:16.344Z,34.63
2022-11-14T20:55:05.172Z,36.17
2022-11-14T20:57:54.040Z,34.90
2022-11-14T21:00:39.189Z,34.13
2022-11-14T21:03:24.009Z,35.67
2022-11-14T21:06:11.604Z,32.47
2022-11-14T21:08:56.356Z,32.27
2022-11-14T21:11:41.402Z,30.73
2022-11-14T21:14:26.916Z,34.30
2022-11-14T21:17:11.634Z,31.63
2022-11-14T21:19:56.542Z,39.47
2022-11-14T21:22:41.561Z,32.90
2022-11-14T21:25:26.922Z,33.17
2022-11-14T21:28:11.908Z,31.27
2022-11-14T21:30:58.571Z,29.40
2022-11-14T21:33:44.623Z,30.23
2022-11-14T21:36:44.536Z,29.97
2022-11-14T21:39:31.012Z,31.10
2022-11-14T21:42:18.602Z,33.07
2022-11-14T21:45:05.406Z,32.63
2022-11-14T21:47:50.753Z,27.87
2022-11-14T21:50:35.659Z,29.23
2022-11-14T21:53:20.848Z,30.83
2022-11-14T21:56:19.660Z,28.53
2022-11-14T21:59:16.068Z,30.80
2022-11-14T22:02:20.420Z,29.00
2022-11-14T22:05:06.387Z,29.53
2022-11-14T22:07:51.475Z,29.23
2022-11-14T22:10:36.643Z,30.47
2022-11-14T22:13:21.860Z,27.80
2022-11-14T22:16:08.765Z,31.13
2022-11-14T22:18:58.052Z,29.43
2022-11-14T22:21:46.844Z,28.63
2022-11-14T22:24:31.986Z,29.40
2022-11-14T22:27:17.181Z,29.00
2022-11-14T22:30:02.395Z,28.20
2022-11-14T22:32:47.342Z,26.37
2022-11-14T22:35:35.233Z,27.27
2022-11-14T22:38:20.709Z,31.80
2022-11-14T22:41:09.624Z,27.60
2022-11-14T22:43:55.798Z,28.03
2022-11-14T22:46:40.990Z,27.10
2022-11-14T22:49:25.851Z,27.87
2022-11-14T22:52:11.121Z,26.10
2022-11-14T22:54:56.128Z,25.27
2022-11-14T22:57:41.389Z,25.07
2022-11-14T23:00:26.557Z,24.53
2022-11-14T23:04:02.474Z,28.63
2022-11-14T23:06:52.833Z,26.20
2022-11-14T23:09:37.996Z,26.43
2022-11-14T23:12:23.360Z,23.37
2022-11-14T23:15:09.704Z,26.23
2022-11-14T23:17:55.283Z,25.23
2022-11-14T23:20:46.889Z,26.00
2022-11-14T23:23:32.975Z,26.80
2022-11-14T23:26:26.609Z,23.27
2022-11-14T23:29:14.185Z,25.73
2022-11-14T23:31:59.622Z,25.60
2022-11-14T23:34:44.763Z,24.07
2022-11-14T23:37:29.703Z,22.50
2022-11-14T23:40:15.175Z,22.97
2022-11-14T23:43:00.585Z,24.30
2022-11-14T23:45:48.220Z,23.57
2022-11-14T23:48:33.409Z,23.70
2022-11-14T23:51:18.390Z,22.77
2022-11-14T23:54:03.474Z,24.70
2022-11-14T23:56:48.445Z,22.20
2022-11-14T23:59:33.636Z,24.67
